Startpagina
METAR-TAF:

METAR-TAF

Vliegvelden :

Vliegbasis Woensdrecht

Woensdrecht, Nederland

breedte: 51-27N, lengte: 004-20E, hoogte: 20 m

Actueel weer

Dit bericht is 16 minuten geleden gemaakt, om 05:25 UTC
Wind 2 kt uit variabele richting
Temperatuur -5°C
Vochtigheid 93%
Druk 1027 hPa
Zicht: 1200 m
(lichte) motsneeuw

METAR: EHWO 070525Z AUTO VRB02KT 1200 -SG NCD M05/M06 Q1027 AMB

Tijdstip: 06:41 (05:41 UTC)


TAF: ontbreekt

Waarnemingen en weersverwachtingen van meer dan 4000 vliegvelden (METAR en TAF).

De beschikbare stations zijn de gele en rode punten op de kaart.

Ga met uw muis naar het station om de naam te zien.

Klik dan om waarnemingen en weersverwachtingen te zien.

kaart wijzigen: klik op de groene knoppen met een zwart kruis om in te zoomen, op de groene knop met een streepje om uit te zoomen of op de groene pijlen voor aangrenzende kaarten.


METAR-TAF: